createdAt,value
2023-03-05T00:01:58.332Z,3.84
2023-03-05T00:04:25.563Z,4.14
2023-03-05T00:06:52.195Z,4.22
2023-03-05T00:09:18.857Z,4.26
2023-03-05T00:11:45.463Z,4.11
2023-03-05T00:14:12.228Z,4.07
2023-03-05T00:16:39.621Z,4.13
2023-03-05T00:19:07.484Z,3.67
2023-03-05T00:21:39.884Z,4.22
2023-03-05T00:24:17.250Z,4.07
2023-03-05T00:26:45.134Z,4.09
2023-03-05T00:29:16.100Z,4.13
2023-03-05T00:31:44.375Z,3.77
2023-03-05T00:34:16.099Z,3.57
2023-03-05T00:36:46.144Z,3.93
2023-03-05T00:39:13.341Z,3.78
2023-03-05T00:41:40.392Z,3.61
2023-03-05T00:44:07.401Z,3.88
2023-03-05T00:46:35.188Z,3.65
2023-03-05T00:49:01.915Z,4.13
2023-03-05T00:51:28.683Z,3.77
2023-03-05T00:53:55.566Z,4.07
2023-03-05T00:56:22.319Z,3.93
2023-03-05T00:58:49.050Z,3.98
2023-03-05T01:01:16.348Z,3.59
2023-03-05T01:03:43.199Z,4.08
2023-03-05T01:06:13.346Z,3.77
2023-03-05T01:08:39.971Z,3.34
2023-03-05T01:11:07.489Z,3.19
2023-03-05T01:13:34.661Z,3.34
2023-03-05T01:16:02.095Z,3.32
2023-03-05T01:18:28.733Z,2.94
2023-03-05T01:20:55.581Z,2.31
2023-03-05T01:23:22.239Z,3.16
2023-03-05T01:25:57.332Z,2.50
2023-03-05T01:28:24.649Z,3.04
2023-03-05T01:30:51.420Z,2.36
2023-03-05T01:33:18.334Z,3.07
2023-03-05T01:35:49.562Z,3.26
2023-03-05T01:38:16.924Z,3.10
2023-03-05T01:40:44.620Z,3.05
2023-03-05T01:43:11.358Z,3.32
2023-03-05T01:45:38.858Z,3.40
2023-03-05T01:48:05.593Z,3.44
2023-03-05T01:50:33.364Z,3.41
2023-03-05T01:53:04.218Z,3.35
2023-03-05T01:55:33.093Z,3.22
2023-03-05T01:58:08.167Z,3.31
2023-03-05T02:00:39.741Z,2.79
2023-03-05T02:03:09.698Z,3.34
2023-03-05T02:05:38.173Z,3.31
2023-03-05T02:08:10.605Z,3.07
2023-03-05T02:10:49.876Z,3.07
2023-03-05T02:13:26.563Z,3.35
2023-03-05T02:15:55.159Z,3.11
2023-03-05T02:18:22.670Z,3.40
2023-03-05T02:20:56.440Z,3.36
2023-03-05T02:23:29.321Z,3.24
2023-03-05T02:25:56.190Z,2.98
2023-03-05T02:28:25.845Z,3.09
2023-03-05T02:30:52.524Z,3.11
2023-03-05T02:33:19.871Z,3.18
2023-03-05T02:35:46.661Z,3.14
2023-03-05T02:38:15.954Z,3.25
2023-03-05T02:40:43.158Z,2.75
2023-03-05T02:43:10.609Z,3.18
2023-03-05T02:45:37.542Z,3.25
2023-03-05T02:48:04.391Z,3.22
2023-03-05T02:50:32.203Z,3.13
2023-03-05T02:52:59.049Z,2.24
2023-03-05T02:55:25.737Z,2.21
2023-03-05T02:57:52.284Z,2.50
2023-03-05T03:00:19.136Z,2.62
2023-03-05T03:02:45.782Z,2.78
2023-03-05T03:05:12.475Z,2.85
2023-03-05T03:07:39.042Z,2.44
2023-03-05T03:10:06.307Z,2.60
2023-03-05T03:12:37.597Z,2.89
2023-03-05T03:15:04.650Z,2.88
2023-03-05T03:17:31.257Z,2.96
2023-03-05T03:19:57.872Z,2.60
2023-03-05T03:22:24.478Z,2.97
2023-03-05T03:24:51.182Z,2.98
2023-03-05T03:27:17.768Z,2.81
2023-03-05T03:29:44.409Z,3.03
2023-03-05T03:32:11.120Z,3.03
2023-03-05T03:34:37.776Z,3.06
2023-03-05T03:37:04.434Z,2.67
2023-03-05T03:39:31.046Z,2.82
2023-03-05T03:41:57.738Z,2.78
2023-03-05T03:44:24.731Z,2.81
2023-03-05T03:46:51.766Z,2.66
2023-03-05T03:49:25.012Z,2.33
2023-03-05T03:51:52.447Z,2.44
2023-03-05T03:54:19.581Z,2.15
2023-03-05T03:56:46.786Z,2.19
2023-03-05T03:59:14.431Z,1.73
2023-03-05T04:01:41.515Z,2.54
2023-03-05T04:04:08.935Z,2.49
2023-03-05T04:06:35.760Z,2.44
2023-03-05T04:09:02.353Z,2.31
2023-03-05T04:11:29.015Z,2.42
2023-03-05T04:13:55.652Z,2.39
2023-03-05T04:16:22.634Z,2.47
2023-03-05T04:18:49.329Z,1.96
2023-03-05T04:21:15.912Z,2.34
2023-03-05T04:23:42.463Z,2.36
2023-03-05T04:26:09.182Z,2.48
2023-03-05T04:28:36.266Z,2.17
2023-03-05T04:31:03.526Z,2.68
2023-03-05T04:33:30.171Z,2.27
2023-03-05T04:35:56.824Z,2.42
2023-03-05T04:38:23.542Z,2.84
2023-03-05T04:40:50.215Z,2.24
2023-03-05T04:43:16.842Z,1.96
2023-03-05T04:45:43.899Z,2.59
2023-03-05T04:48:11.857Z,2.75
2023-03-05T04:50:38.941Z,2.48
2023-03-05T04:53:05.755Z,2.55
2023-03-05T04:55:32.387Z,2.54
2023-03-05T04:57:59.142Z,2.71
2023-03-05T05:00:25.994Z,2.80
2023-03-05T05:02:52.753Z,2.79
2023-03-05T05:05:25.592Z,3.03
2023-03-05T05:07:56.763Z,2.91
2023-03-05T05:10:24.318Z,3.05
2023-03-05T05:12:51.235Z,3.16
2023-03-05T05:15:18.180Z,3.07
2023-03-05T05:17:44.829Z,3.41
2023-03-05T05:20:14.323Z,3.36
2023-03-05T05:22:41.111Z,3.51
2023-03-05T05:25:08.877Z,3.65
2023-03-05T05:27:35.479Z,3.84
2023-03-05T05:30:02.117Z,3.77
2023-03-05T05:32:28.815Z,3.76
2023-03-05T05:34:56.980Z,3.35
2023-03-05T05:37:24.968Z,3.90
2023-03-05T05:39:51.702Z,4.01
2023-03-05T05:42:19.804Z,3.97
2023-03-05T05:44:47.637Z,4.34
2023-03-05T05:47:15.894Z,4.44
2023-03-05T05:49:42.588Z,4.10
2023-03-05T05:52:09.317Z,4.49
2023-03-05T05:54:36.056Z,4.65
2023-03-05T05:57:03.263Z,4.68
2023-03-05T05:59:29.952Z,4.76
2023-03-05T06:01:56.672Z,4.71
2023-03-05T06:04:23.303Z,5.19
2023-03-05T06:06:49.905Z,5.40
2023-03-05T06:09:16.914Z,5.47
2023-03-05T06:11:43.499Z,5.51
2023-03-05T06:14:12.357Z,5.43
2023-03-05T06:16:39.598Z,4.79
2023-03-05T06:19:06.508Z,5.32
2023-03-05T06:21:33.531Z,5.35
2023-03-05T06:24:00.313Z,5.06
2023-03-05T06:26:26.984Z,5.07
2023-03-05T06:28:54.253Z,5.47
2023-03-05T06:31:25.776Z,2.99
2023-03-05T06:33:55.599Z,5.41
2023-03-05T06:36:24.242Z,5.11
2023-03-05T06:38:53.412Z,5.10
2023-03-05T06:41:28.991Z,5.41
2023-03-05T06:43:55.867Z,5.56
2023-03-05T06:46:30.875Z,5.09
2023-03-05T06:49:00.180Z,4.35
2023-03-05T06:51:28.596Z,4.92
2023-03-05T06:53:56.512Z,5.15
2023-03-05T06:56:23.651Z,4.97
2023-03-05T06:58:52.016Z,5.44
2023-03-05T07:01:19.415Z,5.65
2023-03-05T07:03:49.868Z,5.12
2023-03-05T07:06:16.872Z,5.40
2023-03-05T07:08:44.932Z,5.84
2023-03-05T07:11:13.599Z,6.21
2023-03-05T07:13:40.668Z,6.42
2023-03-05T07:16:09.434Z,6.62
2023-03-05T07:18:36.417Z,6.87
2023-03-05T07:21:07.606Z,7.00
2023-03-05T07:23:36.348Z,7.06
2023-03-05T07:26:04.890Z,6.68
2023-03-05T07:28:32.302Z,6.41
2023-03-05T07:31:05.243Z,7.02
2023-03-05T07:33:33.583Z,7.50
2023-03-05T07:36:01.352Z,7.61
2023-03-05T07:38:28.093Z,7.47
2023-03-05T07:40:54.667Z,7.82
2023-03-05T07:43:21.223Z,7.85
2023-03-05T07:45:47.939Z,8.29
2023-03-05T07:48:17.913Z,8.11
2023-03-05T07:50:44.607Z,8.30
2023-03-05T07:53:11.257Z,8.23
2023-03-05T07:55:47.551Z,8.71
2023-03-05T07:58:14.561Z,8.61
2023-03-05T08:00:41.472Z,9.15
2023-03-05T08:03:08.237Z,9.40
2023-03-05T08:05:35.068Z,9.37
2023-03-05T08:08:01.667Z,9.59
2023-03-05T08:10:28.217Z,9.59
2023-03-05T08:12:54.952Z,9.13
2023-03-05T08:15:21.579Z,9.38
2023-03-05T08:17:48.251Z,9.42
2023-03-05T08:20:14.879Z,9.48
2023-03-05T08:22:41.535Z,9.30
2023-03-05T08:25:09.861Z,9.37
2023-03-05T08:27:44.589Z,9.92
2023-03-05T08:30:14.790Z,10.23
2023-03-05T08:32:41.460Z,10.33
2023-03-05T08:35:09.613Z,9.97
2023-03-05T08:37:37.512Z,9.84
2023-03-05T08:40:05.218Z,10.34
2023-03-05T08:42:31.928Z,10.50
2023-03-05T08:44:58.656Z,11.10
2023-03-05T08:47:26.702Z,11.43
2023-03-05T08:49:57.304Z,11.03
2023-03-05T08:52:25.173Z,11.53
2023-03-05T08:54:52.007Z,11.73
2023-03-05T08:57:18.648Z,12.03
2023-03-05T08:59:45.237Z,12.34
2023-03-05T09:02:14.710Z,12.18
2023-03-05T09:04:41.420Z,12.34
2023-03-05T09:07:08.140Z,12.32
2023-03-05T09:09:34.877Z,12.66
2023-03-05T09:12:02.225Z,13.10
2023-03-05T09:14:29.548Z,13.22
2023-03-05T09:16:57.327Z,13.23
2023-03-05T09:19:24.860Z,13.67
2023-03-05T09:21:51.671Z,14.10
2023-03-05T09:24:18.348Z,13.98
2023-03-05T09:26:45.132Z,13.89
2023-03-05T09:29:12.478Z,14.30
2023-03-05T09:31:39.657Z,14.19
2023-03-05T09:34:07.334Z,14.60
2023-03-05T09:36:34.425Z,14.08
2023-03-05T09:39:01.060Z,14.53
2023-03-05T09:41:37.807Z,14.13
2023-03-05T09:44:23.237Z,14.26
2023-03-05T09:47:21.302Z,13.23
2023-03-05T09:49:55.540Z,14.22
2023-03-05T09:52:28.961Z,14.03
2023-03-05T09:54:57.932Z,13.95
2023-03-05T09:57:36.260Z,13.44
2023-03-05T10:00:21.092Z,13.29
2023-03-05T10:02:55.770Z,13.60
2023-03-05T10:05:37.050Z,13.72
2023-03-05T10:08:05.912Z,13.54
2023-03-05T10:10:50.477Z,13.46
2023-03-05T10:13:25.319Z,13.22
2023-03-05T10:16:10.764Z,13.38
2023-03-05T10:18:51.384Z,13.93
2023-03-05T10:21:26.989Z,14.09
2023-03-05T10:24:51.069Z,14.13
2023-03-05T10:27:41.620Z,14.43
2023-03-05T10:30:31.031Z,14.34
2023-03-05T10:33:43.616Z,14.12
2023-03-05T10:36:16.075Z,13.45
2023-03-05T10:39:04.722Z,13.75
2023-03-05T10:41:49.839Z,14.13
2023-03-05T10:44:27.786Z,14.11
2023-03-05T10:46:58.206Z,13.96
2023-03-05T10:49:36.204Z,14.06
2023-03-05T10:52:20.115Z,12.15
2023-03-05T10:54:46.727Z,12.14
2023-03-05T10:57:22.807Z,12.44
2023-03-05T10:59:58.073Z,12.70
2023-03-05T11:02:25.160Z,11.83
2023-03-05T11:04:53.019Z,11.74
2023-03-05T11:07:19.560Z,11.79
2023-03-05T11:10:06.273Z,11.48
2023-03-05T11:12:38.289Z,11.40
2023-03-05T11:15:10.649Z,11.97
2023-03-05T11:17:44.588Z,12.27
2023-03-05T11:20:32.715Z,12.50
2023-03-05T11:23:04.224Z,12.41
2023-03-05T11:25:32.855Z,11.82
2023-03-05T11:28:01.255Z,11.49
2023-03-05T11:30:37.828Z,11.40
2023-03-05T11:33:20.343Z,11.42
2023-03-05T11:35:49.392Z,11.08
2023-03-05T11:38:41.056Z,11.38
2023-03-05T11:41:10.535Z,11.60
2023-03-05T11:43:41.625Z,11.82
2023-03-05T11:46:12.364Z,12.23
2023-03-05T11:48:41.156Z,12.21
2023-03-05T11:51:19.632Z,12.21
2023-03-05T11:53:50.865Z,12.54
2023-03-05T11:56:53.435Z,12.30
2023-03-05T11:59:28.329Z,12.35
2023-03-05T12:01:57.696Z,12.06
2023-03-05T12:04:24.871Z,12.60
2023-03-05T12:06:57.980Z,12.57
2023-03-05T12:09:33.939Z,12.53
2023-03-05T12:12:09.915Z,12.50
2023-03-05T12:14:49.409Z,12.28
2023-03-05T12:17:28.692Z,12.44
2023-03-05T12:20:06.460Z,12.29
2023-03-05T12:22:42.209Z,12.68
2023-03-05T12:25:35.501Z,12.48
2023-03-05T12:28:02.496Z,12.57
2023-03-05T12:30:49.297Z,12.63
2023-03-05T12:33:43.248Z,12.59
2023-03-05T12:36:21.662Z,12.52
2023-03-05T12:38:54.285Z,12.39
2023-03-05T12:41:24.934Z,12.44
2023-03-05T12:44:04.924Z,12.33
2023-03-05T12:47:12.661Z,12.18
2023-03-05T12:49:40.386Z,12.17
2023-03-05T12:52:22.288Z,12.33
2023-03-05T12:55:00.119Z,12.35
2023-03-05T12:57:29.506Z,12.31
2023-03-05T13:00:10.983Z,12.21
2023-03-05T13:02:44.491Z,12.17
2023-03-05T13:05:19.704Z,12.06
2023-03-05T13:07:46.318Z,11.99
2023-03-05T13:10:28.153Z,11.89
2023-03-05T13:12:57.365Z,12.03
2023-03-05T13:15:25.996Z,12.14
2023-03-05T13:17:57.605Z,11.95
2023-03-05T13:20:34.117Z,12.15
2023-03-05T13:23:17.401Z,12.21
2023-03-05T13:26:24.436Z,12.18
2023-03-05T13:29:06.348Z,12.24
2023-03-05T13:31:35.937Z,12.57
2023-03-05T13:34:17.192Z,12.58
2023-03-05T13:36:52.278Z,12.53
2023-03-05T13:39:22.849Z,11.44
2023-03-05T13:42:01.337Z,12.67
2023-03-05T13:44:29.575Z,12.69
2023-03-05T13:47:18.133Z,12.90
2023-03-05T13:49:47.195Z,13.28
2023-03-05T13:52:35.299Z,13.87
2023-03-05T13:55:04.621Z,13.70
2023-03-05T13:57:40.621Z,13.43
2023-03-05T14:00:25.000Z,13.47
2023-03-05T14:02:52.652Z,13.17
2023-03-05T14:05:19.880Z,12.99
2023-03-05T14:07:51.242Z,13.08
2023-03-05T14:10:31.730Z,12.60
2023-03-05T14:13:00.033Z,12.91
2023-03-05T14:15:27.901Z,13.12
2023-03-05T14:18:12.858Z,13.27
2023-03-05T14:20:41.566Z,12.83
2023-03-05T14:23:43.535Z,13.02
2023-03-05T14:26:35.047Z,12.91
2023-03-05T14:29:07.400Z,12.85
2023-03-05T14:31:46.956Z,12.80
2023-03-05T14:34:22.022Z,12.67
2023-03-05T14:36:51.685Z,12.59
2023-03-05T14:39:46.523Z,12.01
2023-03-05T14:42:27.010Z,12.66
2023-03-05T14:44:55.774Z,12.62
2023-03-05T14:47:27.274Z,12.61
2023-03-05T14:49:54.215Z,12.57
2023-03-05T14:52:23.321Z,12.44
2023-03-05T14:54:50.273Z,12.42
2023-03-05T14:57:21.137Z,12.20
2023-03-05T14:59:47.759Z,11.50
2023-03-05T15:02:23.623Z,12.32
2023-03-05T15:04:53.191Z,12.42
2023-03-05T15:07:25.834Z,12.21
2023-03-05T15:09:52.837Z,12.15
2023-03-05T15:12:24.424Z,12.25
2023-03-05T15:14:55.858Z,12.25
2023-03-05T15:17:36.987Z,12.29
2023-03-05T15:20:08.326Z,12.33
2023-03-05T15:22:35.041Z,11.93
2023-03-05T15:25:01.736Z,12.08
2023-03-05T15:27:28.408Z,12.03
2023-03-05T15:29:55.059Z,12.17
2023-03-05T15:32:21.675Z,12.06
2023-03-05T15:34:48.628Z,11.93
2023-03-05T15:37:15.202Z,11.18
2023-03-05T15:39:42.399Z,11.48
2023-03-05T15:42:08.961Z,11.34
2023-03-05T15:44:35.611Z,11.26
2023-03-05T15:47:02.215Z,10.51
2023-03-05T15:49:28.774Z,10.93
2023-03-05T15:51:56.938Z,11.06
2023-03-05T15:54:23.535Z,10.98
2023-03-05T15:56:50.933Z,10.76
2023-03-05T15:59:17.994Z,10.57
2023-03-05T16:01:51.553Z,10.16
2023-03-05T16:04:18.723Z,10.33
2023-03-05T16:06:48.036Z,10.25
2023-03-05T16:09:16.246Z,9.97
2023-03-05T16:11:48.008Z,10.20
2023-03-05T16:14:17.552Z,10.27
2023-03-05T16:16:44.499Z,10.10
2023-03-05T16:19:13.805Z,10.09
2023-03-05T16:21:40.522Z,9.73
2023-03-05T16:24:10.341Z,9.39
2023-03-05T16:26:38.045Z,9.31
2023-03-05T16:29:08.481Z,9.08
2023-03-05T16:31:38.273Z,8.97
2023-03-05T16:34:05.105Z,8.71
2023-03-05T16:36:35.082Z,8.71
2023-03-05T16:39:04.586Z,8.65
2023-03-05T16:41:31.849Z,8.57
2023-03-05T16:43:59.653Z,8.24
2023-03-05T16:46:28.237Z,8.14
2023-03-05T16:48:55.042Z,8.10
2023-03-05T16:51:22.236Z,7.96
2023-03-05T16:53:49.268Z,7.92
2023-03-05T16:56:16.461Z,7.24
2023-03-05T16:58:43.163Z,7.52
2023-03-05T17:01:12.545Z,7.15
2023-03-05T17:03:41.478Z,7.44
2023-03-05T17:06:10.582Z,7.44
2023-03-05T17:08:37.161Z,7.48
2023-03-05T17:11:03.870Z,7.33
2023-03-05T17:13:30.434Z,7.02
2023-03-05T17:15:59.905Z,6.56
2023-03-05T17:18:26.492Z,6.63
2023-03-05T17:20:53.721Z,6.54
2023-03-05T17:23:20.646Z,6.64
2023-03-05T17:25:49.540Z,6.76
2023-03-05T17:28:16.581Z,6.66
2023-03-05T17:30:43.229Z,6.75
2023-03-05T17:33:10.285Z,6.70
2023-03-05T17:35:39.124Z,6.12
2023-03-05T17:38:10.908Z,6.63
2023-03-05T17:40:37.545Z,6.45
2023-03-05T17:43:04.604Z,6.42
2023-03-05T17:45:31.544Z,6.23
2023-03-05T17:47:58.858Z,6.15
2023-03-05T17:50:25.626Z,5.98
2023-03-05T17:52:52.606Z,5.86
2023-03-05T17:55:20.149Z,5.77
2023-03-05T17:57:47.937Z,5.55
2023-03-05T18:00:28.112Z,5.66
2023-03-05T18:02:55.149Z,5.54
2023-03-05T18:05:24.396Z,5.52
2023-03-05T18:07:52.025Z,5.54
2023-03-05T18:10:20.891Z,5.05
2023-03-05T18:12:48.117Z,5.39
2023-03-05T18:15:16.960Z,5.36
2023-03-05T18:17:44.357Z,5.40
2023-03-05T18:20:36.343Z,5.12
2023-03-05T18:23:06.020Z,5.16
2023-03-05T18:25:35.083Z,5.29
2023-03-05T18:28:03.018Z,5.41
2023-03-05T18:30:31.428Z,5.47
2023-03-05T18:32:58.684Z,5.48
2023-03-05T18:35:25.704Z,5.18
2023-03-05T18:37:52.339Z,5.44
2023-03-05T18:40:22.172Z,5.41
2023-03-05T18:42:50.207Z,5.33
2023-03-05T18:45:19.265Z,5.28
2023-03-05T18:47:47.008Z,4.83
2023-03-05T18:50:18.500Z,5.48
2023-03-05T18:52:46.140Z,4.25
2023-03-05T18:55:16.441Z,5.16
2023-03-05T18:57:43.126Z,5.01
2023-03-05T19:00:13.610Z,5.18
2023-03-05T19:02:40.697Z,5.44
2023-03-05T19:05:07.814Z,5.39
2023-03-05T19:07:35.256Z,5.62
2023-03-05T19:10:07.524Z,5.60
2023-03-05T19:12:51.052Z,5.64
2023-03-05T19:15:17.583Z,5.69
2023-03-05T19:17:44.362Z,5.31
2023-03-05T19:20:12.976Z,5.34
2023-03-05T19:22:40.320Z,5.48
2023-03-05T19:25:08.645Z,5.52
2023-03-05T19:27:35.781Z,5.60
2023-03-05T19:30:03.865Z,5.57
2023-03-05T19:32:30.580Z,5.64
2023-03-05T19:34:58.338Z,5.58
2023-03-05T19:37:25.657Z,5.70
2023-03-05T19:39:52.807Z,5.75
2023-03-05T19:42:19.708Z,5.78
2023-03-05T19:44:46.544Z,5.00
2023-03-05T19:47:13.273Z,5.38
2023-03-05T19:49:40.294Z,5.45
2023-03-05T19:52:07.491Z,5.18
2023-03-05T19:54:34.201Z,5.34
2023-03-05T19:57:01.068Z,5.41
2023-03-05T19:59:27.831Z,5.55
2023-03-05T20:01:54.724Z,5.60
2023-03-05T20:04:23.253Z,5.65
2023-03-05T20:06:49.960Z,5.67
2023-03-05T20:09:17.032Z,5.53
2023-03-05T20:11:43.950Z,5.66
2023-03-05T20:14:13.174Z,5.13
2023-03-05T20:16:40.307Z,5.19
2023-03-05T20:19:10.309Z,5.42
2023-03-05T20:21:40.658Z,5.56
2023-03-05T20:24:10.821Z,5.52
2023-03-05T20:26:39.485Z,4.79
2023-03-05T20:29:07.091Z,5.16
2023-03-05T20:31:37.079Z,4.78
2023-03-05T20:34:11.170Z,5.22
2023-03-05T20:36:37.968Z,5.26
2023-03-05T20:39:05.697Z,5.31
2023-03-05T20:41:34.730Z,5.01
2023-03-05T20:44:03.327Z,5.46
2023-03-05T20:46:33.213Z,4.77
2023-03-05T20:49:02.291Z,5.68
2023-03-05T20:51:37.883Z,5.77
2023-03-05T20:54:11.191Z,5.16
2023-03-05T20:56:38.284Z,6.00
2023-03-05T20:59:08.974Z,5.74
2023-03-05T21:01:38.570Z,5.81
2023-03-05T21:04:05.777Z,5.67
2023-03-05T21:06:33.226Z,5.54
2023-03-05T21:09:00.319Z,5.28
2023-03-05T21:11:27.273Z,5.63
2023-03-05T21:13:54.158Z,5.75
2023-03-05T21:16:23.479Z,5.83
2023-03-05T21:18:51.250Z,5.93
2023-03-05T21:21:18.364Z,6.00
2023-03-05T21:23:45.151Z,6.18
2023-03-05T21:26:13.280Z,6.26
2023-03-05T21:28:40.941Z,6.23
2023-03-05T21:31:09.968Z,6.08
2023-03-05T21:33:37.490Z,6.32
2023-03-05T21:36:04.661Z,6.40
2023-03-05T21:38:34.019Z,6.34
2023-03-05T21:41:01.779Z,6.40
2023-03-05T21:43:28.787Z,5.65
2023-03-05T21:45:57.211Z,6.29
2023-03-05T21:48:24.829Z,6.15
2023-03-05T21:50:52.405Z,6.07
2023-03-05T21:53:20.031Z,6.06
2023-03-05T21:56:02.803Z,6.01
2023-03-05T21:58:33.760Z,5.87
2023-03-05T22:01:00.844Z,5.87
2023-03-05T22:03:28.080Z,5.89
2023-03-05T22:05:55.125Z,5.98
2023-03-05T22:08:22.919Z,5.92
2023-03-05T22:10:49.737Z,6.03
2023-03-05T22:13:17.911Z,6.08
2023-03-05T22:15:47.216Z,6.08
2023-03-05T22:18:15.877Z,6.01
2023-03-05T22:20:43.073Z,5.95
2023-03-05T22:23:10.063Z,5.91
2023-03-05T22:25:37.275Z,5.79
2023-03-05T22:28:04.298Z,5.39
2023-03-05T22:30:32.182Z,5.62
2023-03-05T22:33:00.896Z,5.51
2023-03-05T22:35:28.692Z,5.68
2023-03-05T22:37:55.335Z,5.77
2023-03-05T22:40:22.588Z,5.01
2023-03-05T22:42:49.350Z,5.45
2023-03-05T22:45:18.227Z,4.94
2023-03-05T22:47:50.247Z,4.68
2023-03-05T22:50:18.134Z,4.82
2023-03-05T22:52:44.829Z,4.77
2023-03-05T22:55:14.022Z,4.86
2023-03-05T22:57:41.041Z,4.85
2023-03-05T23:00:14.381Z,4.79
2023-03-05T23:02:41.597Z,4.84
2023-03-05T23:05:09.368Z,4.55
2023-03-05T23:07:38.534Z,4.06
2023-03-05T23:10:12.331Z,4.51
2023-03-05T23:12:44.018Z,4.42
2023-03-05T23:15:14.717Z,4.40
2023-03-05T23:17:41.587Z,4.25
2023-03-05T23:20:11.670Z,4.61
2023-03-05T23:22:40.034Z,4.54
2023-03-05T23:25:07.272Z,4.53
2023-03-05T23:27:34.209Z,4.30
2023-03-05T23:30:17.369Z,3.76
2023-03-05T23:32:45.082Z,4.19
2023-03-05T23:35:14.148Z,3.95
2023-03-05T23:37:41.333Z,4.04
2023-03-05T23:40:14.280Z,3.86
2023-03-05T23:42:41.586Z,3.74
2023-03-05T23:45:10.436Z,3.78
2023-03-05T23:47:37.379Z,3.94
2023-03-05T23:50:12.638Z,3.65
2023-03-05T23:52:40.558Z,3.75
2023-03-05T23:55:07.853Z,3.57
2023-03-05T23:57:35.272Z,3.35
